Time;durP1;ratioP1;P1;durP2;ratioP2;P2;SDS_P1;SDS_P2;PMS_P1;PMS_P2;Temp;Humidity;BMP_temperature;BMP_pressure;BME280_temperature;BME280_humidity;BME280_pressure;Samples;Min_cycle;Max_cycle;Signal;HPM_P1;HPM_P2
2022/07/20 00:00:00;;;;;;;0.30;0.30;;;;;;;;;;1871656;75;26707;-88
2022/07/20 00:02:27;;;;;;;0.40;0.40;;;;;;;;;;1872454;75;26650;-87
2022/07/20 00:04:55;;;;;;;0.20;0.20;;;;;;;;;;1875349;75;26175;-87
2022/07/20 00:07:22;;;;;;;0.30;0.30;;;;;;;;;;1878338;76;26646;-88
2022/07/20 00:12:35;;;;;;;0.30;0.30;;;;;;;;;;1894567;75;26811;-87
2022/07/20 00:15:02;;;;;;;0.37;0.37;;;;;;;;;;1881906;74;26199;-87
2022/07/20 00:17:29;;;;;;;0.30;0.30;;;;;;;;;;1894613;75;26184;-87
2022/07/20 00:19:56;;;;;;;0.30;0.30;;;;;;;;;;1870574;75;26219;-88
2022/07/20 00:22:24;;;;;;;0.40;0.40;;;;;;;;;;1890385;75;26188;-88
2022/07/20 00:24:51;;;;;;;0.30;0.30;;;;;;;;;;1898403;75;26196;-87
2022/07/20 00:27:18;;;;;;;0.40;0.40;;;;;;;;;;1898052;75;26325;-87
2022/07/20 00:29:46;;;;;;;0.30;0.30;;;;;;;;;;1891045;75;26765;-88
2022/07/20 00:32:13;;;;;;;0.30;0.30;;;;;;;;;;1867570;75;26184;-87
2022/07/20 00:34:40;;;;;;;0.30;0.30;;;;;;;;;;1892175;75;26258;-88
2022/07/20 00:37:07;;;;;;;0.40;0.40;;;;;;;;;;1891167;75;26686;-87
2022/07/20 00:39:35;;;;;;;0.40;0.40;;;;;;;;;;1884131;75;26713;-87
2022/07/20 00:42:02;;;;;;;0.30;0.30;;;;;;;;;;1887978;75;26616;-86
2022/07/20 00:44:29;;;;;;;0.40;0.40;;;;;;;;;;1916935;74;26263;-88
2022/07/20 00:46:57;;;;;;;0.40;0.40;;;;;;;;;;1893403;75;26223;-87
2022/07/20 00:49:24;;;;;;;0.30;0.30;;;;;;;;;;1878890;74;26726;-87
2022/07/20 00:51:51;;;;;;;0.30;0.30;;;;;;;;;;1860477;75;26229;-86
2022/07/20 00:54:19;;;;;;;0.20;0.20;;;;;;;;;;1880855;75;26240;-88
2022/07/20 00:56:46;;;;;;;0.30;0.30;;;;;;;;;;1898771;75;26262;-85
2022/07/20 00:59:13;;;;;;;0.45;0.30;;;;;;;;;;1879991;75;26330;-85
2022/07/20 01:01:41;;;;;;;0.47;0.47;;;;;;;;;;1898393;75;26806;-86
2022/07/20 01:04:08;;;;;;;0.40;0.40;;;;;;;;;;1886522;75;26201;-87
2022/07/20 01:06:35;;;;;;;0.20;0.20;;;;;;;;;;1885307;76;26193;-87
2022/07/20 01:09:03;;;;;;;0.40;0.40;;;;;;;;;;1876663;75;26664;-88
2022/07/20 01:11:30;;;;;;;0.30;0.30;;;;;;;;;;1877931;76;26199;-87
2022/07/20 01:14:00;;;;;;;0.30;0.30;;;;;;;;;;1889376;75;26639;-88
2022/07/20 01:16:28;;;;;;;0.30;0.30;;;;;;;;;;1887041;75;26199;-87
2022/07/20 01:18:55;;;;;;;0.30;0.30;;;;;;;;;;1877828;75;26190;-86
2022/07/20 01:21:22;;;;;;;0.40;0.40;;;;;;;;;;1895459;75;26184;-87
2022/07/20 01:23:49;;;;;;;0.50;0.50;;;;;;;;;;1869919;75;26205;-86
2022/07/20 01:26:17;;;;;;;0.40;0.40;;;;;;;;;;1884511;75;26748;-86
2022/07/20 01:28:45;;;;;;;0.35;0.35;;;;;;;;;;1886042;75;26253;-86
2022/07/20 01:31:13;;;;;;;0.57;0.40;;;;;;;;;;1897103;75;26591;-87
2022/07/20 01:33:40;;;;;;;0.40;0.40;;;;;;;;;;1873070;75;26179;-87
2022/07/20 01:36:07;;;;;;;0.30;0.30;;;;;;;;;;1906895;75;26681;-88
2022/07/20 01:38:35;;;;;;;0.40;0.40;;;;;;;;;;1898989;75;26270;-86
2022/07/20 01:41:02;;;;;;;0.40;0.40;;;;;;;;;;1894180;75;26274;-87
2022/07/20 01:43:29;;;;;;;0.30;0.30;;;;;;;;;;1891083;75;26205;-87
2022/07/20 01:45:56;;;;;;;0.33;0.33;;;;;;;;;;1871666;75;26328;-86
2022/07/20 01:48:24;;;;;;;0.30;0.30;;;;;;;;;;1892761;75;26198;-87
2022/07/20 01:50:51;;;;;;;0.40;0.40;;;;;;;;;;1908506;75;26643;-87
2022/07/20 01:53:18;;;;;;;0.30;0.30;;;;;;;;;;1883515;75;26632;-87
2022/07/20 01:55:45;;;;;;;0.25;0.25;;;;;;;;;;1891768;75;27091;-87
2022/07/20 01:58:13;;;;;;;0.40;0.40;;;;;;;;;;1876458;75;26180;-87
2022/07/20 02:00:40;;;;;;;0.30;0.30;;;;;;;;;;1886225;76;26168;-87
2022/07/20 02:03:07;;;;;;;0.20;0.20;;;;;;;;;;1893833;75;26176;-87
2022/07/20 02:05:34;;;;;;;0.40;0.40;;;;;;;;;;1867073;76;26237;-87
2022/07/20 02:08:02;;;;;;;0.20;0.20;;;;;;;;;;1869813;75;26206;-88
2022/07/20 02:10:29;;;;;;;0.23;0.23;;;;;;;;;;1895893;75;26266;-88
2022/07/20 02:12:57;;;;;;;0.33;0.33;;;;;;;;;;1875448;75;26205;-91
2022/07/20 02:18:11;;;;;;;0.40;0.40;;;;;;;;;;1872580;75;26704;-88
2022/07/20 02:20:38;;;;;;;0.20;0.20;;;;;;;;;;1895508;75;26196;-89
2022/07/20 02:23:08;;;;;;;0.40;0.40;;;;;;;;;;1876257;75;26206;-86
2022/07/20 02:25:36;;;;;;;0.40;0.40;;;;;;;;;;1893172;73;26205;-84
2022/07/20 02:28:04;;;;;;;0.37;0.37;;;;;;;;;;1889500;74;26197;-86
2022/07/20 02:30:31;;;;;;;0.23;0.23;;;;;;;;;;1877236;73;26200;-86
2022/07/20 02:32:59;;;;;;;0.42;0.42;;;;;;;;;;1879492;72;26169;-84
2022/07/20 02:35:26;;;;;;;0.50;0.50;;;;;;;;;;1898926;72;26263;-86
2022/07/20 02:37:54;;;;;;;0.40;0.40;;;;;;;;;;1883673;74;26165;-85
2022/07/20 02:40:21;;;;;;;0.30;0.30;;;;;;;;;;1883571;74;26245;-88
2022/07/20 02:42:48;;;;;;;0.40;0.40;;;;;;;;;;1868022;75;26232;-87
2022/07/20 02:45:15;;;;;;;0.20;0.20;;;;;;;;;;1882958;74;26217;-87
2022/07/20 02:47:44;;;;;;;0.40;0.40;;;;;;;;;;1890782;75;26229;-87
2022/07/20 02:50:12;;;;;;;0.30;0.30;;;;;;;;;;1868923;75;26168;-88
2022/07/20 02:52:39;;;;;;;0.30;0.30;;;;;;;;;;1883530;75;26645;-88
2022/07/20 02:55:07;;;;;;;0.35;0.35;;;;;;;;;;1882514;75;26344;-87
2022/07/20 02:57:35;;;;;;;0.33;0.33;;;;;;;;;;1883494;75;26619;-88
2022/07/20 03:00:03;;;;;;;0.35;0.35;;;;;;;;;;1894464;75;26244;-87
2022/07/20 03:02:30;;;;;;;0.37;0.37;;;;;;;;;;1881191;75;26774;-86
2022/07/20 03:04:57;;;;;;;0.30;0.30;;;;;;;;;;1897467;75;26237;-86
2022/07/20 03:07:25;;;;;;;0.30;0.30;;;;;;;;;;1873862;75;26232;-88
2022/07/20 03:09:52;;;;;;;0.40;0.40;;;;;;;;;;1894461;76;26263;-87
2022/07/20 03:12:19;;;;;;;0.40;0.40;;;;;;;;;;1881101;75;26693;-87
2022/07/20 03:14:47;;;;;;;0.40;0.40;;;;;;;;;;1907195;75;26712;-86
2022/07/20 03:17:14;;;;;;;0.45;0.45;;;;;;;;;;1882570;75;26329;-88
2022/07/20 03:19:41;;;;;;;0.47;0.47;;;;;;;;;;1887541;75;26205;-87
2022/07/20 03:22:08;;;;;;;0.30;0.30;;;;;;;;;;1895519;75;26168;-87
2022/07/20 03:24:37;;;;;;;0.50;0.50;;;;;;;;;;1894370;75;26277;-88
2022/07/20 03:27:05;;;;;;;0.30;0.30;;;;;;;;;;1893205;75;26252;-85
2022/07/20 03:29:32;;;;;;;0.30;0.30;;;;;;;;;;1882038;76;26216;-86
2022/07/20 03:31:59;;;;;;;0.40;0.40;;;;;;;;;;1885028;76;26195;-86
2022/07/20 03:34:27;;;;;;;0.30;0.30;;;;;;;;;;1886117;75;26576;-86
2022/07/20 03:36:54;;;;;;;0.45;0.45;;;;;;;;;;1896333;76;26260;-87
2022/07/20 03:39:21;;;;;;;0.40;0.40;;;;;;;;;;1890286;76;26188;-88
2022/07/20 03:41:49;;;;;;;0.50;0.50;;;;;;;;;;1880231;75;26203;-87
2022/07/20 03:44:16;;;;;;;0.37;0.37;;;;;;;;;;1889934;75;26196;-88
2022/07/20 03:46:43;;;;;;;0.50;0.50;;;;;;;;;;1888414;76;26237;-87
2022/07/20 03:49:10;;;;;;;0.40;0.40;;;;;;;;;;1896860;75;26156;-88
2022/07/20 03:51:39;;;;;;;0.40;0.40;;;;;;;;;;1881688;76;26252;-87
2022/07/20 03:54:11;;;;;;;0.40;0.40;;;;;;;;;;1890901;75;26156;-87
2022/07/20 03:56:40;;;;;;;0.40;0.40;;;;;;;;;;1888798;75;26273;-87
2022/07/20 03:59:04;;;;;;;0.40;0.40;;;;;;;;;;1883733;75;26228;-88
2022/07/20 04:01:32;;;;;;;0.45;0.45;;;;;;;;;;1893640;75;26188;-88
2022/07/20 04:03:59;;;;;;;0.50;0.50;;;;;;;;;;1875690;75;26298;-87
2022/07/20 04:06:26;;;;;;;0.40;0.40;;;;;;;;;;1875439;75;26280;-87
2022/07/20 04:08:54;;;;;;;0.40;0.40;;;;;;;;;;1877410;76;26180;-87
2022/07/20 04:11:21;;;;;;;0.30;0.30;;;;;;;;;;1896753;75;26155;-87
2022/07/20 04:13:48;;;;;;;0.40;0.40;;;;;;;;;;1879956;75;26188;-88
2022/07/20 04:16:15;;;;;;;0.40;0.40;;;;;;;;;;1883021;76;26203;-86
2022/07/20 04:18:42;;;;;;;0.40;0.40;;;;;;;;;;1881253;76;26187;-87
2022/07/20 04:21:10;;;;;;;0.30;0.30;;;;;;;;;;1888691;75;26324;-87
2022/07/20 04:23:37;;;;;;;0.30;0.30;;;;;;;;;;1895101;75;26276;-87
2022/07/20 04:26:04;;;;;;;0.45;0.45;;;;;;;;;;1882849;75;26337;-86
2022/07/20 04:28:32;;;;;;;0.40;0.40;;;;;;;;;;1889344;75;26332;-86
2022/07/20 04:30:59;;;;;;;0.30;0.30;;;;;;;;;;1887966;75;26221;-86
2022/07/20 04:33:26;;;;;;;0.37;0.37;;;;;;;;;;1888584;75;26376;-87
2022/07/20 04:35:54;;;;;;;0.40;0.40;;;;;;;;;;1900612;75;26244;-87
2022/07/20 04:38:22;;;;;;;0.50;0.50;;;;;;;;;;1895931;75;26208;-87
2022/07/20 04:40:49;;;;;;;0.45;0.45;;;;;;;;;;1896534;75;26175;-87
2022/07/20 04:43:16;;;;;;;0.40;0.40;;;;;;;;;;1886597;75;26171;-88
2022/07/20 04:45:43;;;;;;;0.40;0.40;;;;;;;;;;1870138;76;26232;-88
2022/07/20 04:48:11;;;;;;;0.28;0.28;;;;;;;;;;1893066;75;26172;-87
2022/07/20 04:50:38;;;;;;;0.50;0.50;;;;;;;;;;1878101;75;26176;-87
2022/07/20 04:53:05;;;;;;;0.23;0.23;;;;;;;;;;1889793;76;26246;-87
2022/07/20 04:55:32;;;;;;;0.50;0.50;;;;;;;;;;1872113;75;26728;-86
2022/07/20 04:58:00;;;;;;;0.50;0.50;;;;;;;;;;1865397;75;26199;-87
2022/07/20 05:00:27;;;;;;;0.40;0.40;;;;;;;;;;1884686;76;26254;-87
2022/07/20 05:02:54;;;;;;;0.42;0.42;;;;;;;;;;1884181;75;26277;-87
2022/07/20 05:05:21;;;;;;;0.45;0.45;;;;;;;;;;1887655;75;26242;-87
2022/07/20 05:07:49;;;;;;;0.40;0.40;;;;;;;;;;1882294;75;26176;-88
2022/07/20 05:10:16;;;;;;;0.50;0.50;;;;;;;;;;1876572;75;26184;-86
2022/07/20 05:12:43;;;;;;;0.60;0.60;;;;;;;;;;1895556;75;26319;-86
2022/07/20 05:15:10;;;;;;;0.40;0.40;;;;;;;;;;1875012;75;26185;-86
2022/07/20 05:17:38;;;;;;;0.57;0.57;;;;;;;;;;1893089;75;26639;-87
2022/07/20 05:20:05;;;;;;;0.60;0.60;;;;;;;;;;1883774;75;26709;-87
2022/07/20 05:22:33;;;;;;;0.60;0.60;;;;;;;;;;1871964;76;26205;-87
2022/07/20 05:25:00;;;;;;;0.60;0.60;;;;;;;;;;1891992;75;26204;-87
2022/07/20 05:27:27;;;;;;;0.50;0.50;;;;;;;;;;1897319;75;26706;-88
2022/07/20 05:29:54;;;;;;;0.55;0.55;;;;;;;;;;1885099;75;26187;-87
2022/07/20 05:32:22;;;;;;;0.60;0.60;;;;;;;;;;1871575;75;26643;-87
2022/07/20 05:34:49;;;;;;;0.60;0.60;;;;;;;;;;1875948;75;26202;-85
2022/07/20 05:37:16;;;;;;;0.62;0.62;;;;;;;;;;1869022;76;26236;-87
2022/07/20 05:39:44;;;;;;;0.62;0.62;;;;;;;;;;1864046;75;26744;-87
2022/07/20 05:42:11;;;;;;;0.60;0.60;;;;;;;;;;1894447;75;26736;-86
2022/07/20 05:44:39;;;;;;;0.60;0.60;;;;;;;;;;1899541;75;26759;-87
2022/07/20 05:47:06;;;;;;;0.62;0.62;;;;;;;;;;1874128;75;26215;-87
2022/07/20 05:49:34;;;;;;;0.62;0.62;;;;;;;;;;1895415;75;26203;-85
2022/07/20 05:52:01;;;;;;;0.68;0.68;;;;;;;;;;1893824;75;26667;-87
2022/07/20 05:54:28;;;;;;;0.70;0.70;;;;;;;;;;1878917;76;26606;-88
2022/07/20 05:56:56;;;;;;;0.60;0.60;;;;;;;;;;1877294;75;26265;-86
2022/07/20 05:59:23;;;;;;;0.72;0.72;;;;;;;;;;1896117;75;26200;-87
2022/07/20 06:01:50;;;;;;;0.70;0.70;;;;;;;;;;1880761;75;26651;-86
2022/07/20 06:04:17;;;;;;;0.60;0.60;;;;;;;;;;1896681;75;26608;-86
2022/07/20 06:06:45;;;;;;;0.68;0.68;;;;;;;;;;1888777;75;26823;-86
2022/07/20 06:09:12;;;;;;;0.80;0.80;;;;;;;;;;1890997;75;26706;-87
2022/07/20 06:11:39;;;;;;;0.78;0.78;;;;;;;;;;1896445;75;26250;-87
2022/07/20 06:14:06;;;;;;;0.70;0.70;;;;;;;;;;1891308;75;26199;-87
2022/07/20 06:16:34;;;;;;;0.80;0.80;;;;;;;;;;1885070;75;26179;-88
2022/07/20 06:19:01;;;;;;;0.90;0.90;;;;;;;;;;1879366;75;26273;-86
2022/07/20 06:21:28;;;;;;;0.90;0.90;;;;;;;;;;1873144;75;26654;-86
2022/07/20 06:23:56;;;;;;;1.00;1.00;;;;;;;;;;1884456;75;26184;-86
2022/07/20 06:26:23;;;;;;;0.80;0.80;;;;;;;;;;1881000;75;26631;-86
2022/07/20 06:28:50;;;;;;;0.70;0.70;;;;;;;;;;1890707;75;26194;-86
2022/07/20 06:31:17;;;;;;;0.70;0.70;;;;;;;;;;1882700;75;26274;-86
2022/07/20 06:33:45;;;;;;;0.80;0.80;;;;;;;;;;1889268;75;26210;-85
2022/07/20 06:36:12;;;;;;;0.90;0.90;;;;;;;;;;1873162;75;26218;-86
2022/07/20 06:38:39;;;;;;;1.00;1.00;;;;;;;;;;1892698;75;26177;-86
2022/07/20 06:41:06;;;;;;;1.00;1.00;;;;;;;;;;1896542;75;26160;-87
2022/07/20 06:43:34;;;;;;;0.90;0.90;;;;;;;;;;1878999;75;26198;-87
2022/07/20 06:46:01;;;;;;;0.90;0.90;;;;;;;;;;1896219;75;26196;-87
2022/07/20 06:48:28;;;;;;;0.90;0.90;;;;;;;;;;1894419;75;26270;-85
2022/07/20 06:50:56;;;;;;;1.02;1.02;;;;;;;;;;1894621;75;26761;-86
2022/07/20 06:53:23;;;;;;;1.10;1.10;;;;;;;;;;1886085;75;27026;-85
2022/07/20 06:55:50;;;;;;;1.00;1.00;;;;;;;;;;1890777;75;26678;-86
2022/07/20 06:58:17;;;;;;;1.10;1.10;;;;;;;;;;1863402;75;26694;-86
2022/07/20 07:00:45;;;;;;;1.10;1.10;;;;;;;;;;1880797;75;26273;-86
2022/07/20 07:03:12;;;;;;;0.90;0.90;;;;;;;;;;1883381;75;26199;-86
2022/07/20 07:05:39;;;;;;;1.10;1.10;;;;;;;;;;1882445;75;26218;-85
2022/07/20 07:08:07;;;;;;;1.00;1.00;;;;;;;;;;1892506;75;26196;-87
2022/07/20 07:10:34;;;;;;;1.20;1.20;;;;;;;;;;1884451;76;26307;-87
2022/07/20 07:13:01;;;;;;;1.17;1.17;;;;;;;;;;1890664;75;26195;-86
2022/07/20 07:15:28;;;;;;;1.00;1.00;;;;;;;;;;1890478;75;26292;-87
2022/07/20 07:17:56;;;;;;;1.10;1.10;;;;;;;;;;1878269;76;26161;-85
2022/07/20 07:20:23;;;;;;;0.90;0.90;;;;;;;;;;1891391;75;26177;-85
2022/07/20 07:22:50;;;;;;;1.05;1.05;;;;;;;;;;1898470;75;26217;-87
2022/07/20 07:25:18;;;;;;;1.10;1.10;;;;;;;;;;1880815;75;26662;-85
2022/07/20 07:27:45;;;;;;;1.00;1.00;;;;;;;;;;1891090;75;26265;-85
2022/07/20 07:30:12;;;;;;;1.17;1.17;;;;;;;;;;1878870;75;26273;-86
2022/07/20 07:32:39;;;;;;;1.15;1.15;;;;;;;;;;1885795;75;26249;-85
2022/07/20 07:35:07;;;;;;;1.10;1.10;;;;;;;;;;1896537;75;26164;-86
2022/07/20 07:37:36;;;;;;;1.20;1.20;;;;;;;;;;1880140;75;26276;-87
2022/07/20 07:40:03;;;;;;;1.25;1.25;;;;;;;;;;1876688;75;26158;-87
2022/07/20 07:42:30;;;;;;;1.20;1.20;;;;;;;;;;1892638;75;26246;-86
2022/07/20 07:44:59;;;;;;;1.20;1.20;;;;;;;;;;1878299;75;26198;-85
2022/07/20 07:47:26;;;;;;;1.27;1.27;;;;;;;;;;1883191;75;26277;-85
2022/07/20 07:49:53;;;;;;;1.20;1.20;;;;;;;;;;1899166;75;26192;-87
2022/07/20 07:52:21;;;;;;;1.20;1.20;;;;;;;;;;1893328;75;26191;-86
2022/07/20 07:54:48;;;;;;;1.17;1.17;;;;;;;;;;1865166;75;26206;-85
2022/07/20 07:57:15;;;;;;;1.15;1.15;;;;;;;;;;1877945;75;26332;-86
2022/07/20 07:59:42;;;;;;;1.50;1.40;;;;;;;;;;1883248;75;26184;-86
2022/07/20 08:02:10;;;;;;;1.30;1.30;;;;;;;;;;1899153;75;26195;-86
2022/07/20 08:04:37;;;;;;;1.47;1.47;;;;;;;;;;1877691;75;26272;-87
2022/07/20 08:07:04;;;;;;;1.32;1.32;;;;;;;;;;1870091;75;26195;-86
2022/07/20 08:09:32;;;;;;;1.30;1.30;;;;;;;;;;1883145;75;26294;-86
2022/07/20 08:11:59;;;;;;;1.40;1.40;;;;;;;;;;1871304;75;26211;-86
2022/07/20 08:14:27;;;;;;;1.30;1.30;;;;;;;;;;1882835;75;26202;-85
2022/07/20 08:16:54;;;;;;;1.12;1.12;;;;;;;;;;1879785;75;26218;-87
2022/07/20 08:19:21;;;;;;;1.30;1.30;;;;;;;;;;1886352;76;26666;-87
2022/07/20 08:21:49;;;;;;;1.20;1.20;;;;;;;;;;1896345;75;26180;-86
2022/07/20 08:24:16;;;;;;;1.40;1.40;;;;;;;;;;1873010;75;26255;-86
2022/07/20 08:26:43;;;;;;;1.40;1.40;;;;;;;;;;1871090;76;26261;-85
2022/07/20 08:29:10;;;;;;;1.25;1.25;;;;;;;;;;1876744;75;26265;-85
2022/07/20 08:31:38;;;;;;;1.50;1.50;;;;;;;;;;1873366;75;26190;-86
2022/07/20 08:34:05;;;;;;;1.40;1.40;;;;;;;;;;1873983;75;26291;-86
2022/07/20 08:36:32;;;;;;;1.27;1.27;;;;;;;;;;1896552;76;26275;-86
2022/07/20 08:39:01;;;;;;;1.25;1.25;;;;;;;;;;1882611;75;26601;-87
2022/07/20 08:41:28;;;;;;;1.30;1.30;;;;;;;;;;1883971;76;26261;-87
2022/07/20 08:43:55;;;;;;;1.40;1.40;;;;;;;;;;1892640;75;26258;-87
2022/07/20 08:46:24;;;;;;;1.32;1.32;;;;;;;;;;1871694;76;26197;-88
2022/07/20 08:48:52;;;;;;;1.40;1.40;;;;;;;;;;1868699;75;26190;-88
2022/07/20 08:51:19;;;;;;;1.32;1.32;;;;;;;;;;1885494;75;26270;-89
2022/07/20 08:53:48;;;;;;;1.40;1.40;;;;;;;;;;1883376;75;26269;-87
2022/07/20 08:56:15;;;;;;;1.30;1.30;;;;;;;;;;1880246;75;26207;-86
2022/07/20 08:58:43;;;;;;;1.40;1.40;;;;;;;;;;1866862;75;26238;-87
2022/07/20 09:01:14;;;;;;;1.40;1.40;;;;;;;;;;1884332;75;27303;-88
2022/07/20 09:03:44;;;;;;;1.55;1.55;;;;;;;;;;1895917;74;26209;-88
2022/07/20 09:06:12;;;;;;;1.42;1.42;;;;;;;;;;1865220;75;26295;-89
2022/07/20 09:08:43;;;;;;;1.30;1.30;;;;;;;;;;1869864;75;26333;-87
2022/07/20 09:11:11;;;;;;;1.32;1.32;;;;;;;;;;1872363;74;26660;-87
2022/07/20 09:13:40;;;;;;;1.50;1.50;;;;;;;;;;1875242;75;26198;-86
2022/07/20 09:16:08;;;;;;;1.32;1.32;;;;;;;;;;1886452;75;26243;-87
2022/07/20 09:18:35;;;;;;;1.32;1.32;;;;;;;;;;1882609;75;26705;-87
2022/07/20 09:21:04;;;;;;;1.40;1.40;;;;;;;;;;1877709;75;26269;-88
2022/07/20 09:23:33;;;;;;;1.30;1.30;;;;;;;;;;1872455;75;26985;-88
2022/07/20 09:26:01;;;;;;;1.45;1.40;;;;;;;;;;1888125;76;26269;-86
2022/07/20 09:28:42;;;;;;;1.32;1.32;;;;;;;;;;1898584;75;26192;-87
2022/07/20 09:31:11;;;;;;;1.40;1.40;;;;;;;;;;1874556;75;26176;-85
2022/07/20 09:33:38;;;;;;;1.60;1.60;;;;;;;;;;1876940;74;26312;-86
2022/07/20 09:36:06;;;;;;;1.42;1.42;;;;;;;;;;1891218;75;26169;-86
2022/07/20 09:38:35;;;;;;;1.55;1.55;;;;;;;;;;1880685;76;26182;-88
2022/07/20 09:41:04;;;;;;;1.65;1.65;;;;;;;;;;1881925;75;26648;-87
2022/07/20 09:43:32;;;;;;;1.40;1.40;;;;;;;;;;1895471;75;26246;-86
2022/07/20 09:46:16;;;;;;;1.40;1.40;;;;;;;;;;1894926;75;26316;-87
2022/07/20 09:48:47;;;;;;;1.37;1.37;;;;;;;;;;1878517;75;26215;-87
2022/07/20 09:51:23;;;;;;;1.40;1.40;;;;;;;;;;1896830;75;26640;-87
2022/07/20 09:53:52;;;;;;;1.60;1.60;;;;;;;;;;1877343;75;26192;-87
2022/07/20 09:56:20;;;;;;;1.50;1.50;;;;;;;;;;1890913;75;26212;-86
2022/07/20 09:58:49;;;;;;;1.70;1.70;;;;;;;;;;1891493;75;26734;-85
2022/07/20 10:01:18;;;;;;;1.40;1.40;;;;;;;;;;1896522;75;27051;-86
2022/07/20 10:03:46;;;;;;;1.50;1.50;;;;;;;;;;1885296;75;26200;-87
2022/07/20 10:06:14;;;;;;;1.60;1.60;;;;;;;;;;1893914;75;26344;-86
2022/07/20 10:08:41;;;;;;;1.50;1.50;;;;;;;;;;1896301;75;26493;-86
2022/07/20 10:11:09;;;;;;;1.50;1.50;;;;;;;;;;1888761;75;26206;-86
2022/07/20 10:13:37;;;;;;;1.40;1.40;;;;;;;;;;1875200;76;26237;-86
2022/07/20 10:16:06;;;;;;;1.42;1.42;;;;;;;;;;1886125;76;26293;-85
2022/07/20 10:18:34;;;;;;;1.50;1.50;;;;;;;;;;1892528;75;26246;-86
2022/07/20 10:21:01;;;;;;;1.60;1.60;;;;;;;;;;1871395;76;26667;-84
2022/07/20 10:23:29;;;;;;;2.77;1.55;;;;;;;;;;1886851;75;26223;-86
2022/07/20 10:25:57;;;;;;;1.70;1.60;;;;;;;;;;1871049;76;26728;-88
2022/07/20 10:28:25;;;;;;;28.45;2.35;;;;;;;;;;1884687;75;28032;-85
2022/07/20 10:30:54;;;;;;;10.18;2.10;;;;;;;;;;1876813;75;26171;-86
2022/07/20 10:33:23;;;;;;;14.03;2.70;;;;;;;;;;1874999;75;26601;-84
2022/07/20 10:35:51;;;;;;;16.82;2.10;;;;;;;;;;1891572;75;26738;-85
2022/07/20 10:38:19;;;;;;;9.50;2.05;;;;;;;;;;1889093;75;26192;-86
2022/07/20 10:44:08;;;;;;;12.33;2.00;;;;;;;;;;1880136;75;26191;-86
2022/07/20 10:46:35;;;;;;;15.75;2.33;;;;;;;;;;1894005;75;26622;-86
2022/07/20 10:49:02;;;;;;;14.05;2.40;;;;;;;;;;1896634;75;26258;-88
2022/07/20 10:51:30;;;;;;;14.30;2.20;;;;;;;;;;1875572;75;26235;-86
2022/07/20 10:53:58;;;;;;;13.93;2.30;;;;;;;;;;1878499;75;26292;-90
2022/07/20 10:56:30;;;;;;;13.05;2.22;;;;;;;;;;1886993;76;26632;-92
2022/07/20 10:59:01;;;;;;;15.78;2.42;;;;;;;;;;1887824;75;26266;-92
2022/07/20 11:01:28;;;;;;;8.83;2.20;;;;;;;;;;1894133;75;26188;-91
2022/07/20 11:03:55;;;;;;;15.23;2.42;;;;;;;;;;1884403;75;26203;-91
2022/07/20 11:06:24;;;;;;;9.03;2.08;;;;;;;;;;1857768;76;26720;-90
2022/07/20 11:08:56;;;;;;;13.98;2.60;;;;;;;;;;1889639;75;26203;-89
2022/07/20 11:11:24;;;;;;;9.45;2.25;;;;;;;;;;1895789;75;26270;-89
2022/07/20 11:13:52;;;;;;;5.60;2.30;;;;;;;;;;1893413;75;26399;-88
2022/07/20 11:16:20;;;;;;;5.20;2.40;;;;;;;;;;1889572;75;26241;-89
2022/07/20 11:18:48;;;;;;;6.55;2.22;;;;;;;;;;1893352;75;26772;-87
2022/07/20 11:21:15;;;;;;;9.05;2.30;;;;;;;;;;1898379;72;26162;-86
2022/07/20 11:23:46;;;;;;;9.65;2.08;;;;;;;;;;1878289;72;26231;-86
2022/07/20 11:26:15;;;;;;;7.00;2.40;;;;;;;;;;1894481;72;26217;-86
2022/07/20 11:28:46;;;;;;;3.47;1.90;;;;;;;;;;1893614;73;26241;-84
2022/07/20 11:31:13;;;;;;;4.37;1.90;;;;;;;;;;1883472;75;26259;-88
2022/07/20 11:33:42;;;;;;;6.20;1.72;;;;;;;;;;1896494;74;26228;-85
2022/07/20 11:36:14;;;;;;;6.20;2.05;;;;;;;;;;1895832;73;26207;-85
2022/07/20 11:38:43;;;;;;;2.85;2.10;;;;;;;;;;1896279;74;26326;-86
2022/07/20 11:41:13;;;;;;;4.17;2.10;;;;;;;;;;1893042;73;26168;-87
2022/07/20 11:43:40;;;;;;;5.72;2.10;;;;;;;;;;1894383;73;26192;-86
2022/07/20 11:46:09;;;;;;;2.90;2.00;;;;;;;;;;1885344;75;26271;-86
2022/07/20 11:48:36;;;;;;;4.40;1.90;;;;;;;;;;1890974;75;26616;-86
2022/07/20 11:51:04;;;;;;;2.27;2.10;;;;;;;;;;1884963;75;26183;-86
2022/07/20 11:53:33;;;;;;;2.60;1.87;;;;;;;;;;1867047;75;26635;-86
2022/07/20 11:56:01;;;;;;;2.77;1.92;;;;;;;;;;1883316;74;26912;-86
2022/07/20 11:58:32;;;;;;;3.90;2.00;;;;;;;;;;1889542;74;26167;-88
2022/07/20 12:01:01;;;;;;;2.62;2.00;;;;;;;;;;1893121;74;26279;-86
2022/07/20 12:03:30;;;;;;;3.58;2.00;;;;;;;;;;1883475;75;26183;-87
2022/07/20 12:06:01;;;;;;;7.12;1.90;;;;;;;;;;1880489;74;26377;-86
2022/07/20 12:08:29;;;;;;;3.58;2.08;;;;;;;;;;1888397;75;26191;-86
2022/07/20 12:10:56;;;;;;;4.10;2.20;;;;;;;;;;1872813;75;26210;-86
2022/07/20 12:13:26;;;;;;;5.90;2.40;;;;;;;;;;1883080;75;26313;-87
2022/07/20 12:15:57;;;;;;;2.45;2.10;;;;;;;;;;1883332;74;26194;-86
2022/07/20 12:18:38;;;;;;;2.22;2.12;;;;;;;;;;1881056;74;26783;-85
2022/07/20 12:21:06;;;;;;;3.42;2.40;;;;;;;;;;1882145;75;26299;-86
2022/07/20 12:23:35;;;;;;;2.75;2.30;;;;;;;;;;1881396;74;26245;-86
2022/07/20 12:26:03;;;;;;;2.60;2.17;;;;;;;;;;1893591;75;26819;-86
2022/07/20 12:28:32;;;;;;;2.95;2.30;;;;;;;;;;1884450;75;26208;-86
2022/07/20 12:31:04;;;;;;;4.58;2.22;;;;;;;;;;1882748;75;26165;-88
2022/07/20 12:33:31;;;;;;;2.27;2.17;;;;;;;;;;1891238;74;26216;-86
2022/07/20 12:36:00;;;;;;;3.75;2.27;;;;;;;;;;1885302;74;26649;-86
2022/07/20 12:38:28;;;;;;;4.03;2.15;;;;;;;;;;1878938;75;26664;-87
2022/07/20 12:40:57;;;;;;;2.50;2.30;;;;;;;;;;1895703;75;26573;-86
2022/07/20 12:43:29;;;;;;;3.02;2.20;;;;;;;;;;1888495;75;26190;-85
2022/07/20 12:45:58;;;;;;;3.22;2.40;;;;;;;;;;1901773;74;26212;-86
2022/07/20 12:48:25;;;;;;;2.70;2.50;;;;;;;;;;1901133;75;26168;-85
2022/07/20 12:50:52;;;;;;;2.83;2.25;;;;;;;;;;1887801;74;26609;-88
2022/07/20 12:53:20;;;;;;;8.60;2.25;;;;;;;;;;1898658;74;26841;-84
2022/07/20 12:55:47;;;;;;;3.00;2.27;;;;;;;;;;1894148;75;26827;-86
2022/07/20 12:58:14;;;;;;;2.33;2.22;;;;;;;;;;1889001;75;26252;-86
2022/07/20 13:00:42;;;;;;;3.72;2.50;;;;;;;;;;1892682;75;26289;-87
2022/07/20 13:03:09;;;;;;;2.65;2.02;;;;;;;;;;1871720;76;26705;-86
2022/07/20 13:05:37;;;;;;;2.62;2.33;;;;;;;;;;1888629;75;26200;-87
2022/07/20 13:08:05;;;;;;;2.83;2.30;;;;;;;;;;1888623;75;26175;-87
2022/07/20 13:10:32;;;;;;;2.27;2.17;;;;;;;;;;1889914;75;26740;-87
2022/07/20 13:12:59;;;;;;;2.42;2.27;;;;;;;;;;1897273;75;26211;-87
2022/07/20 13:15:27;;;;;;;2.77;2.58;;;;;;;;;;1886735;75;26191;-87
2022/07/20 13:17:54;;;;;;;2.40;2.27;;;;;;;;;;1896142;75;26228;-87
2022/07/20 13:20:22;;;;;;;2.25;2.15;;;;;;;;;;1879160;75;26694;-87
2022/07/20 13:22:50;;;;;;;2.47;2.27;;;;;;;;;;1878842;76;26339;-87
2022/07/20 13:25:17;;;;;;;2.67;2.33;;;;;;;;;;1897933;75;26202;-86
2022/07/20 13:27:45;;;;;;;2.80;2.62;;;;;;;;;;1876633;75;26265;-87
2022/07/20 13:30:12;;;;;;;3.17;2.50;;;;;;;;;;1883626;75;26210;-86
2022/07/20 13:32:40;;;;;;;2.60;2.40;;;;;;;;;;1880585;75;27170;-86
2022/07/20 13:35:07;;;;;;;2.95;2.70;;;;;;;;;;1892229;75;26239;-87
2022/07/20 13:37:36;;;;;;;2.65;2.45;;;;;;;;;;1885674;75;26297;-87
2022/07/20 13:40:03;;;;;;;2.75;2.55;;;;;;;;;;1885701;75;26250;-86
2022/07/20 13:42:31;;;;;;;3.45;2.40;;;;;;;;;;1895732;75;26293;-86
2022/07/20 13:44:58;;;;;;;2.50;2.40;;;;;;;;;;1897108;75;27066;-85
2022/07/20 13:47:27;;;;;;;3.87;2.50;;;;;;;;;;1891768;75;26872;-85
2022/07/20 13:49:54;;;;;;;2.55;2.35;;;;;;;;;;1875513;75;26297;-86
2022/07/20 13:52:21;;;;;;;2.30;2.20;;;;;;;;;;1864602;75;26272;-87
2022/07/20 13:54:50;;;;;;;2.65;2.55;;;;;;;;;;1894307;75;26730;-87
2022/07/20 13:57:18;;;;;;;2.47;2.37;;;;;;;;;;1889030;75;26733;-86
2022/07/20 13:59:45;;;;;;;2.60;2.50;;;;;;;;;;1892430;74;26208;-87
2022/07/20 14:02:12;;;;;;;2.65;2.40;;;;;;;;;;1896182;74;26249;-86
2022/07/20 14:04:40;;;;;;;5.42;2.60;;;;;;;;;;1878126;75;26748;-86
2022/07/20 14:07:07;;;;;;;2.37;2.27;;;;;;;;;;1876274;74;26266;-87
2022/07/20 14:09:36;;;;;;;2.77;2.58;;;;;;;;;;1892767;75;26656;-85
2022/07/20 14:12:03;;;;;;;2.50;2.30;;;;;;;;;;1889875;74;26670;-86
2022/07/20 14:14:30;;;;;;;2.77;2.58;;;;;;;;;;1885888;74;26285;-85
2022/07/20 14:16:58;;;;;;;2.98;2.77;;;;;;;;;;1873994;75;26263;-85
2022/07/20 14:19:25;;;;;;;3.30;2.60;;;;;;;;;;1893900;74;26175;-85
2022/07/20 14:21:52;;;;;;;2.75;2.55;;;;;;;;;;1896500;75;26269;-86
2022/07/20 14:24:20;;;;;;;2.42;2.33;;;;;;;;;;1882687;76;26691;-86
2022/07/20 14:26:47;;;;;;;2.52;2.40;;;;;;;;;;1882967;74;26184;-86
2022/07/20 14:29:15;;;;;;;3.90;2.58;;;;;;;;;;1891674;74;26228;-86
2022/07/20 14:31:43;;;;;;;2.52;2.37;;;;;;;;;;1876914;74;26214;-85
2022/07/20 14:34:10;;;;;;;2.92;2.80;;;;;;;;;;1890875;74;26228;-86
2022/07/20 14:36:38;;;;;;;3.35;2.55;;;;;;;;;;1887881;74;26618;-86
2022/07/20 14:39:05;;;;;;;2.65;2.37;;;;;;;;;;1883250;74;26269;-86
2022/07/20 14:41:32;;;;;;;4.12;2.70;;;;;;;;;;1885360;74;26696;-85
2022/07/20 14:44:00;;;;;;;4.20;2.70;;;;;;;;;;1885737;74;26210;-86
2022/07/20 14:46:27;;;;;;;3.17;2.70;;;;;;;;;;1877158;74;26190;-86
2022/07/20 14:48:56;;;;;;;4.47;2.60;;;;;;;;;;1881933;75;25946;-86
2022/07/20 14:51:23;;;;;;;3.65;2.22;;;;;;;;;;1894691;74;26176;-85
2022/07/20 14:53:52;;;;;;;2.45;2.25;;;;;;;;;;1873160;74;26284;-86